createdAt,value
2022-08-23T00:00:13.543Z,19.41
2022-08-23T00:01:12.092Z,19.33
2022-08-23T00:02:16.721Z,19.44
2022-08-23T00:03:13.180Z,19.41
2022-08-23T00:04:12.072Z,19.47
2022-08-23T00:05:12.056Z,19.44
2022-08-23T00:06:12.053Z,19.37
2022-08-23T00:07:12.048Z,19.34
2022-08-23T00:08:12.042Z,19.27
2022-08-23T00:09:12.026Z,19.24
2022-08-23T00:10:12.022Z,19.15
2022-08-23T00:11:12.010Z,19.14
2022-08-23T00:12:12.002Z,19.21
2022-08-23T00:13:12.004Z,19.08
2022-08-23T00:14:11.990Z,19.04
2022-08-23T00:15:11.977Z,19.15
2022-08-23T00:16:11.972Z,19.07
2022-08-23T00:17:11.966Z,19.02
2022-08-23T00:18:12.955Z,18.99
2022-08-23T00:19:11.960Z,19.04
2022-08-23T00:20:11.944Z,19.00
2022-08-23T00:21:11.939Z,19.04
2022-08-23T00:22:12.686Z,19.02
2022-08-23T00:23:11.923Z,18.99
2022-08-23T00:24:11.921Z,18.75
2022-08-23T00:25:11.919Z,18.78
2022-08-23T00:26:11.888Z,18.74
2022-08-23T00:27:12.898Z,18.78
2022-08-23T00:28:13.696Z,18.58
2022-08-23T00:29:11.878Z,18.52
2022-08-23T00:30:12.635Z,18.44
2022-08-23T00:32:12.007Z,18.34
2022-08-23T00:33:11.999Z,18.35
2022-08-23T00:34:11.996Z,18.29
2022-08-23T00:35:11.987Z,18.31
2022-08-23T00:36:13.082Z,18.31
2022-08-23T00:37:13.063Z,18.29
2022-08-23T00:38:32.289Z,18.29
2022-08-23T00:39:14.066Z,18.26
2022-08-23T00:40:13.130Z,18.28
2022-08-23T00:41:13.031Z,18.20
2022-08-23T00:42:13.018Z,18.07
2022-08-23T00:43:13.013Z,18.15
2022-08-23T00:44:13.015Z,18.08
2022-08-23T00:45:13.002Z,18.07
2022-08-23T00:46:13.000Z,18.05
2022-08-23T00:47:12.979Z,18.08
2022-08-23T00:48:13.978Z,18.10
2022-08-23T00:49:12.969Z,18.04
2022-08-23T00:50:23.426Z,18.03
2022-08-23T00:51:13.957Z,18.01
2022-08-23T00:52:12.945Z,18.00
2022-08-23T00:53:12.940Z,17.98
2022-08-23T00:54:12.923Z,18.03
2022-08-23T00:55:12.923Z,17.98
2022-08-23T00:56:12.907Z,17.86
2022-08-23T00:57:12.909Z,17.97
2022-08-23T00:58:12.895Z,17.89
2022-08-23T00:59:12.889Z,17.97
2022-08-23T01:00:12.888Z,18.01
2022-08-23T01:01:12.868Z,17.97
2022-08-23T01:02:12.922Z,17.97
2022-08-23T01:03:12.857Z,18.05
2022-08-23T01:04:12.843Z,18.00
2022-08-23T01:05:12.849Z,17.98
2022-08-23T01:06:12.824Z,18.00
2022-08-23T01:07:12.818Z,17.98
2022-08-23T01:08:12.818Z,17.94
2022-08-23T01:09:12.838Z,17.98
2022-08-23T01:10:13.239Z,17.90
2022-08-23T01:11:13.800Z,17.86
2022-08-23T01:12:12.784Z,17.82
2022-08-23T01:13:12.782Z,17.79
2022-08-23T01:14:12.781Z,17.92
2022-08-23T01:15:12.761Z,17.90
2022-08-23T01:16:13.389Z,17.86
2022-08-23T01:17:12.745Z,17.89
2022-08-23T01:18:12.739Z,17.85
2022-08-23T01:19:12.744Z,17.85
2022-08-23T01:20:12.729Z,17.76
2022-08-23T01:21:13.474Z,17.82
2022-08-23T01:22:12.710Z,17.80
2022-08-23T01:23:12.700Z,17.76
2022-08-23T01:24:18.071Z,17.72
2022-08-23T01:25:13.688Z,17.65
2022-08-23T01:26:12.675Z,17.71
2022-08-23T01:27:12.675Z,17.48
2022-08-23T01:28:12.664Z,17.52
2022-08-23T01:29:12.670Z,17.51
2022-08-23T01:30:12.669Z,17.39
2022-08-23T01:31:12.634Z,17.44
2022-08-23T01:32:12.629Z,17.38
2022-08-23T01:33:12.626Z,17.30
2022-08-23T01:34:12.626Z,17.26
2022-08-23T01:35:12.615Z,17.22
2022-08-23T01:36:12.607Z,17.23
2022-08-23T01:37:12.594Z,17.22
2022-08-23T01:38:12.582Z,17.19
2022-08-23T01:39:12.587Z,17.19
2022-08-23T01:40:12.661Z,17.20
2022-08-23T01:41:12.586Z,17.19
2022-08-23T01:42:12.570Z,17.12
2022-08-23T01:43:12.535Z,17.22
2022-08-23T01:44:13.539Z,17.09
2022-08-23T01:45:12.536Z,17.05
2022-08-23T01:46:12.526Z,17.08
2022-08-23T01:47:12.512Z,17.01
2022-08-23T01:48:12.509Z,16.96
2022-08-23T01:49:12.515Z,16.96
2022-08-23T01:50:12.487Z,16.91
2022-08-23T01:51:12.493Z,16.86
2022-08-23T01:52:12.483Z,16.93
2022-08-23T01:53:12.473Z,16.86
2022-08-23T01:54:12.466Z,16.83
2022-08-23T01:55:12.450Z,16.87
2022-08-23T01:56:12.444Z,16.78
2022-08-23T01:57:12.444Z,16.93
2022-08-23T01:58:12.422Z,16.91
2022-08-23T01:59:12.424Z,16.89
2022-08-23T02:00:12.416Z,16.93
2022-08-23T02:01:12.464Z,16.94
2022-08-23T02:02:12.397Z,17.02
2022-08-23T02:03:12.389Z,16.94
2022-08-23T02:04:12.397Z,17.05
2022-08-23T02:05:12.377Z,16.93
2022-08-23T02:06:12.362Z,16.94
2022-08-23T02:07:12.356Z,17.06
2022-08-23T02:08:13.350Z,17.06
2022-08-23T02:09:17.173Z,16.97
2022-08-23T02:10:13.984Z,16.94
2022-08-23T02:11:12.750Z,16.90
2022-08-23T02:12:12.314Z,16.99
2022-08-23T02:13:12.312Z,16.87
2022-08-23T02:14:12.299Z,16.89
2022-08-23T02:15:12.304Z,16.87
2022-08-23T02:16:15.000Z,16.90
2022-08-23T02:17:12.281Z,16.97
2022-08-23T02:18:12.263Z,16.90
2022-08-23T02:19:12.260Z,16.91
2022-08-23T02:20:12.258Z,16.71
2022-08-23T02:21:12.271Z,16.79
2022-08-23T02:22:12.235Z,16.83
2022-08-23T02:23:12.231Z,16.76
2022-08-23T02:24:12.224Z,16.74
2022-08-23T02:25:12.207Z,16.68
2022-08-23T02:26:12.208Z,16.68
2022-08-23T02:27:12.200Z,16.66
2022-08-23T02:28:12.181Z,16.64
2022-08-23T02:29:12.178Z,16.53
2022-08-23T02:30:12.163Z,16.60
2022-08-23T02:31:12.163Z,16.56
2022-08-23T02:32:12.154Z,16.58
2022-08-23T02:33:12.139Z,16.50
2022-08-23T02:34:12.143Z,16.57
2022-08-23T02:35:12.127Z,16.47
2022-08-23T02:36:12.151Z,16.53
2022-08-23T02:37:12.110Z,16.39
2022-08-23T02:38:12.127Z,16.60
2022-08-23T02:39:12.091Z,16.57
2022-08-23T02:40:13.073Z,16.64
2022-08-23T02:41:12.076Z,16.57
2022-08-23T02:42:12.119Z,16.53
2022-08-23T02:43:12.060Z,16.53
2022-08-23T02:44:12.079Z,16.57
2022-08-23T02:45:12.052Z,16.56
2022-08-23T02:46:12.044Z,16.58
2022-08-23T02:47:12.046Z,16.56
2022-08-23T02:48:12.023Z,16.43
2022-08-23T02:49:12.017Z,16.58
2022-08-23T02:50:12.005Z,16.51
2022-08-23T02:51:11.998Z,16.51
2022-08-23T02:52:12.000Z,16.46
2022-08-23T02:53:11.981Z,16.39
2022-08-23T02:54:11.982Z,16.33
2022-08-23T02:55:11.971Z,16.36
2022-08-23T02:56:21.110Z,16.39
2022-08-23T02:57:12.946Z,16.35
2022-08-23T02:58:11.942Z,16.42
2022-08-23T02:59:11.936Z,16.29
2022-08-23T03:00:11.934Z,16.47
2022-08-23T03:01:11.935Z,16.38
2022-08-23T03:02:12.493Z,16.43
2022-08-23T03:03:11.906Z,16.47
2022-08-23T03:04:11.921Z,16.43
2022-08-23T03:05:11.898Z,16.42
2022-08-23T03:06:24.403Z,16.41
2022-08-23T03:07:12.869Z,16.42
2022-08-23T03:08:11.878Z,16.49
2022-08-23T03:09:11.859Z,16.57
2022-08-23T03:10:11.858Z,16.54
2022-08-23T03:11:11.841Z,16.53
2022-08-23T03:12:11.820Z,16.54
2022-08-23T03:13:12.825Z,16.61
2022-08-23T03:14:11.823Z,16.61
2022-08-23T03:15:11.815Z,16.61
2022-08-23T03:16:11.801Z,16.64
2022-08-23T03:17:11.795Z,16.66
2022-08-23T03:18:11.785Z,16.58
2022-08-23T03:19:11.776Z,16.68
2022-08-23T03:20:11.776Z,16.72
2022-08-23T03:21:11.755Z,16.66
2022-08-23T03:22:11.753Z,16.66
2022-08-23T03:23:11.742Z,16.75
2022-08-23T03:24:11.746Z,16.71
2022-08-23T03:25:11.747Z,16.83
2022-08-23T03:26:11.722Z,16.78
2022-08-23T03:27:11.719Z,16.81
2022-08-23T03:28:11.699Z,16.78
2022-08-23T03:29:11.698Z,16.83
2022-08-23T03:30:14.550Z,16.71
2022-08-23T03:31:12.676Z,16.83
2022-08-23T03:32:11.667Z,16.76
2022-08-23T03:33:11.677Z,16.78
2022-08-23T03:34:11.674Z,16.75
2022-08-23T03:35:15.312Z,16.71
2022-08-23T03:36:11.636Z,16.74
2022-08-23T03:37:11.633Z,16.57
2022-08-23T03:38:11.619Z,16.58
2022-08-23T03:39:11.619Z,16.47
2022-08-23T03:40:11.720Z,16.53
2022-08-23T03:41:11.613Z,16.49
2022-08-23T03:42:11.595Z,16.57
2022-08-23T03:43:11.603Z,16.53
2022-08-23T03:44:11.581Z,16.51
2022-08-23T03:45:11.567Z,16.57
2022-08-23T03:46:11.560Z,16.60
2022-08-23T03:47:11.554Z,16.54
2022-08-23T03:48:11.544Z,16.56
2022-08-23T03:49:11.543Z,16.65
2022-08-23T03:50:11.526Z,16.57
2022-08-23T03:51:12.015Z,16.53
2022-08-23T03:52:11.514Z,16.53
2022-08-23T03:53:12.216Z,16.50
2022-08-23T03:54:11.502Z,16.61
2022-08-23T03:55:11.487Z,16.66
2022-08-23T03:56:11.481Z,16.56
2022-08-23T03:57:11.475Z,16.61
2022-08-23T03:58:11.494Z,16.71
2022-08-23T03:59:12.444Z,16.68
2022-08-23T04:00:11.466Z,16.75
2022-08-23T04:01:11.470Z,16.74
2022-08-23T04:02:12.004Z,16.86
2022-08-23T04:03:11.435Z,16.89
2022-08-23T04:04:12.055Z,16.86
2022-08-23T04:05:11.540Z,16.81
2022-08-23T04:06:11.405Z,16.84
2022-08-23T04:07:11.408Z,16.86
2022-08-23T04:08:11.390Z,16.81
2022-08-23T04:09:12.044Z,16.83
2022-08-23T04:10:11.392Z,16.81
2022-08-23T04:11:11.386Z,16.81
2022-08-23T04:12:12.053Z,16.76
2022-08-23T04:13:12.353Z,16.86
2022-08-23T04:14:11.344Z,16.74
2022-08-23T04:15:11.333Z,16.81
2022-08-23T04:16:11.328Z,16.86
2022-08-23T04:17:11.323Z,16.81
2022-08-23T04:18:11.312Z,16.74
2022-08-23T04:19:11.315Z,16.72
2022-08-23T04:20:12.025Z,16.74
2022-08-23T04:21:11.314Z,16.81
2022-08-23T04:22:11.270Z,16.78
2022-08-23T04:23:11.258Z,16.87
2022-08-23T04:24:11.268Z,16.89
2022-08-23T04:25:33.414Z,16.84
2022-08-23T04:26:12.257Z,16.74
2022-08-23T04:27:11.247Z,16.83
2022-08-23T04:28:11.220Z,16.86
2022-08-23T04:29:11.212Z,16.81
2022-08-23T04:30:12.200Z,16.89
2022-08-23T04:31:11.205Z,16.87
2022-08-23T04:32:11.624Z,16.79
2022-08-23T04:33:14.166Z,16.68
2022-08-23T04:34:13.194Z,16.83
2022-08-23T04:35:11.175Z,16.83
2022-08-23T04:36:11.158Z,16.79
2022-08-23T04:37:11.144Z,16.84
2022-08-23T04:38:18.158Z,16.90
2022-08-23T04:39:12.131Z,16.81
2022-08-23T04:40:11.199Z,16.91
2022-08-23T04:41:12.062Z,16.99
2022-08-23T04:42:14.363Z,16.96
2022-08-23T04:43:12.104Z,16.93
2022-08-23T04:44:11.099Z,16.96
2022-08-23T04:45:11.091Z,16.97
2022-08-23T04:46:11.092Z,17.04
2022-08-23T04:47:11.072Z,17.09
2022-08-23T04:48:11.878Z,17.08
2022-08-23T04:49:11.056Z,17.20
2022-08-23T04:50:11.047Z,17.20
2022-08-23T04:51:11.044Z,17.29
2022-08-23T04:52:12.757Z,17.24
2022-08-23T04:53:11.080Z,17.24
2022-08-23T04:54:11.037Z,17.23
2022-08-23T04:55:12.034Z,17.36
2022-08-23T04:56:10.997Z,17.29
2022-08-23T04:57:10.995Z,17.38
2022-08-23T04:58:10.985Z,17.34
2022-08-23T04:59:13.181Z,17.44
2022-08-23T05:00:10.964Z,17.52
2022-08-23T05:01:11.591Z,17.56
2022-08-23T05:02:10.944Z,17.63
2022-08-23T05:03:10.943Z,17.78
2022-08-23T05:04:10.943Z,17.92
2022-08-23T05:05:10.920Z,18.05
2022-08-23T05:06:10.916Z,18.20
2022-08-23T05:07:10.907Z,18.43
2022-08-23T05:08:10.885Z,18.41
2022-08-23T05:09:11.883Z,18.60
2022-08-23T05:10:10.887Z,18.65
2022-08-23T05:11:10.874Z,18.71
2022-08-23T05:12:10.864Z,18.74
2022-08-23T05:13:10.857Z,18.84
2022-08-23T05:14:10.870Z,18.86
2022-08-23T05:15:11.539Z,18.93
2022-08-23T05:16:10.852Z,19.04
2022-08-23T05:17:10.822Z,19.09
2022-08-23T05:18:11.482Z,19.19
2022-08-23T05:19:10.808Z,19.29
2022-08-23T05:20:10.818Z,19.34
2022-08-23T05:21:11.560Z,19.34
2022-08-23T05:22:12.131Z,19.39
2022-08-23T05:23:10.770Z,19.47
2022-08-23T05:24:13.841Z,19.71
2022-08-23T05:25:10.757Z,19.73
2022-08-23T05:26:10.786Z,19.73
2022-08-23T05:27:13.685Z,19.73
2022-08-23T05:28:12.473Z,19.67
2022-08-23T05:29:10.750Z,19.58
2022-08-23T05:30:15.108Z,19.69
2022-08-23T05:31:11.722Z,19.64
2022-08-23T05:32:10.745Z,19.79
2022-08-23T05:33:10.695Z,19.81
2022-08-23T05:34:10.693Z,19.86
2022-08-23T05:35:10.682Z,20.03
2022-08-23T05:36:10.668Z,20.22
2022-08-23T05:37:10.659Z,20.41
2022-08-23T05:38:10.665Z,20.37
2022-08-23T05:39:10.651Z,20.47
2022-08-23T05:40:11.730Z,20.37
2022-08-23T05:41:10.633Z,20.40
2022-08-23T05:42:10.619Z,20.31
2022-08-23T05:43:10.614Z,20.34
2022-08-23T05:44:10.617Z,20.39
2022-08-23T05:45:10.593Z,20.31
2022-08-23T05:46:12.735Z,20.24
2022-08-23T05:47:11.564Z,20.19
2022-08-23T05:48:10.594Z,20.37
2022-08-23T05:49:10.583Z,20.48
2022-08-23T05:50:10.558Z,20.55
2022-08-23T05:51:10.546Z,20.52
2022-08-23T05:52:10.544Z,20.32
2022-08-23T05:53:10.534Z,20.25
2022-08-23T05:54:10.529Z,20.03
2022-08-23T05:55:10.519Z,19.92
2022-08-23T05:56:10.514Z,19.69
2022-08-23T05:57:10.557Z,19.45
2022-08-23T05:58:10.517Z,19.34
2022-08-23T05:59:12.462Z,19.30
2022-08-23T06:00:10.480Z,19.19
2022-08-23T06:01:10.564Z,19.19
2022-08-23T06:02:10.505Z,19.31
2022-08-23T06:03:10.463Z,19.54
2022-08-23T06:04:10.469Z,19.63
2022-08-23T06:05:10.442Z,19.55
2022-08-23T06:06:10.437Z,19.63
2022-08-23T06:07:10.451Z,19.73
2022-08-23T06:08:10.437Z,19.77
2022-08-23T06:09:10.456Z,19.69
2022-08-23T06:10:15.821Z,19.59
2022-08-23T06:11:11.403Z,19.51
2022-08-23T06:12:10.396Z,19.41
2022-08-23T06:13:10.440Z,19.27
2022-08-23T06:14:10.402Z,19.22
2022-08-23T06:15:10.374Z,19.12
2022-08-23T06:16:14.271Z,19.04
2022-08-23T06:17:10.357Z,18.96
2022-08-23T06:18:10.342Z,18.89
2022-08-23T06:19:10.330Z,18.77
2022-08-23T06:20:10.451Z,18.65
2022-08-23T06:21:10.996Z,18.62
2022-08-23T06:22:10.307Z,18.65
2022-08-23T06:23:12.049Z,18.60
2022-08-23T06:24:10.292Z,18.44
2022-08-23T06:25:10.287Z,18.41
2022-08-23T06:26:10.282Z,18.44
2022-08-23T06:27:10.265Z,18.44
2022-08-23T06:28:10.261Z,18.49
2022-08-23T06:29:10.314Z,18.52
2022-08-23T06:30:13.304Z,18.47
2022-08-23T06:31:10.280Z,18.60
2022-08-23T06:32:10.272Z,18.84
2022-08-23T06:33:10.213Z,19.07
2022-08-23T06:34:10.281Z,19.24
2022-08-23T06:35:29.958Z,19.48
2022-08-23T06:36:11.198Z,19.73
2022-08-23T06:37:10.185Z,19.92
2022-08-23T06:38:10.181Z,20.07
2022-08-23T06:39:10.174Z,20.24
2022-08-23T06:40:10.239Z,20.19
2022-08-23T06:41:10.165Z,20.29
2022-08-23T06:42:36.407Z,20.40
2022-08-23T06:43:12.143Z,20.39
2022-08-23T06:44:10.143Z,20.65
2022-08-23T06:45:10.126Z,20.74
2022-08-23T06:46:10.115Z,20.90
2022-08-23T06:47:10.114Z,21.07
2022-08-23T06:48:10.102Z,21.39
2022-08-23T06:49:10.098Z,21.54
2022-08-23T06:50:10.093Z,21.62
2022-08-23T06:51:10.082Z,21.67
2022-08-23T06:52:10.058Z,21.66
2022-08-23T06:53:11.057Z,21.85
2022-08-23T06:54:10.064Z,21.99
2022-08-23T06:55:13.752Z,22.04
2022-08-23T06:56:11.048Z,22.18
2022-08-23T06:57:10.042Z,22.36
2022-08-23T06:58:10.022Z,22.54
2022-08-23T06:59:10.039Z,22.48
2022-08-23T07:00:10.018Z,22.60
2022-08-23T07:01:23.522Z,22.72
2022-08-23T07:02:12.106Z,22.75
2022-08-23T07:03:10.040Z,22.85
2022-08-23T07:04:09.980Z,22.84
2022-08-23T07:05:09.974Z,22.98
2022-08-23T07:06:09.983Z,23.10
2022-08-23T07:07:11.926Z,23.32
2022-08-23T07:08:10.942Z,23.31
2022-08-23T07:09:09.949Z,23.56
2022-08-23T07:10:09.931Z,23.83
2022-08-23T07:11:09.923Z,23.92
2022-08-23T07:12:09.938Z,23.87
2022-08-23T07:13:09.907Z,24.03
2022-08-23T07:14:09.897Z,24.01
2022-08-23T07:15:09.900Z,24.21
2022-08-23T07:16:09.934Z,24.42
2022-08-23T07:17:09.893Z,24.73
2022-08-23T07:18:11.009Z,24.93
2022-08-23T07:19:09.866Z,25.14
2022-08-23T07:20:09.855Z,25.32
2022-08-23T07:21:09.846Z,25.43
2022-08-23T07:22:09.848Z,25.77
2022-08-23T07:23:09.821Z,25.93
2022-08-23T07:24:09.841Z,26.02
2022-08-23T07:25:09.809Z,26.28
2022-08-23T07:26:10.801Z,26.45
2022-08-23T07:27:09.797Z,26.38
2022-08-23T07:28:11.694Z,26.40
2022-08-23T07:29:10.798Z,26.45
2022-08-23T07:30:09.777Z,26.51
2022-08-23T07:31:11.454Z,26.48
2022-08-23T07:32:10.849Z,26.40
2022-08-23T07:33:09.748Z,26.33
2022-08-23T07:34:09.736Z,26.34
2022-08-23T07:35:09.740Z,26.10
2022-08-23T07:36:09.722Z,25.95
2022-08-23T07:37:15.488Z,26.00
2022-08-23T07:38:10.706Z,26.19
2022-08-23T07:39:09.705Z,26.02
2022-08-23T07:40:09.718Z,26.07
2022-08-23T07:41:10.680Z,26.33
2022-08-23T07:42:22.804Z,26.47
2022-08-23T07:43:10.669Z,26.55
2022-08-23T07:44:09.664Z,26.45
2022-08-23T07:45:10.049Z,26.33
2022-08-23T07:46:12.529Z,26.16
2022-08-23T07:47:09.642Z,26.02
2022-08-23T07:48:09.629Z,25.81
2022-08-23T07:49:09.615Z,25.80
2022-08-23T07:50:09.624Z,25.60
2022-08-23T07:51:09.605Z,25.65
2022-08-23T07:52:12.096Z,25.83
2022-08-23T07:53:09.598Z,25.93
2022-08-23T07:54:09.595Z,26.15
2022-08-23T07:55:09.589Z,26.45
2022-08-23T07:56:09.576Z,26.55
2022-08-23T07:57:09.554Z,26.56
2022-08-23T07:58:09.550Z,26.71
2022-08-23T07:59:09.545Z,26.78
2022-08-23T08:00:09.540Z,26.70
2022-08-23T08:01:09.524Z,26.66
2022-08-23T08:02:09.887Z,26.68
2022-08-23T08:03:09.567Z,26.78
2022-08-23T08:04:09.499Z,26.95
2022-08-23T08:05:09.526Z,27.10
2022-08-23T08:06:09.520Z,27.30
2022-08-23T08:07:21.855Z,27.40
2022-08-23T08:08:11.495Z,27.51
2022-08-23T08:09:09.488Z,27.49
2022-08-23T08:10:09.460Z,27.58
2022-08-23T08:11:09.509Z,27.78
2022-08-23T08:12:09.465Z,27.85
2022-08-23T08:13:09.435Z,27.82
2022-08-23T08:14:09.436Z,27.87
2022-08-23T08:15:09.433Z,27.80
2022-08-23T08:16:09.478Z,27.37
2022-08-23T08:17:10.442Z,27.40
2022-08-23T08:18:09.402Z,27.59
2022-08-23T08:19:09.397Z,27.51
2022-08-23T08:20:09.382Z,27.48
2022-08-23T08:21:09.373Z,27.54
2022-08-23T08:22:09.374Z,27.60
2022-08-23T08:23:09.353Z,27.92
2022-08-23T08:24:09.360Z,28.00
2022-08-23T08:25:09.349Z,28.10
2022-08-23T08:26:09.331Z,28.27
2022-08-23T08:27:09.327Z,28.19
2022-08-23T08:28:15.131Z,28.07
2022-08-23T08:29:11.334Z,27.93
2022-08-23T08:30:09.317Z,28.07
2022-08-23T08:31:09.386Z,27.90
2022-08-23T08:32:13.915Z,28.00
2022-08-23T08:33:09.285Z,27.83
2022-08-23T08:34:09.276Z,27.60
2022-08-23T08:35:09.284Z,27.70
2022-08-23T08:36:09.273Z,27.85
2022-08-23T08:37:09.271Z,27.82
2022-08-23T08:38:10.052Z,27.70
2022-08-23T08:39:10.412Z,27.36
2022-08-23T08:40:09.313Z,26.84
2022-08-23T08:41:09.237Z,26.53
2022-08-23T08:42:09.213Z,26.59
2022-08-23T08:43:09.218Z,26.75
2022-08-23T08:44:09.201Z,26.92
2022-08-23T08:45:09.238Z,26.99
2022-08-23T08:46:09.225Z,27.10
2022-08-23T08:47:09.172Z,27.10
2022-08-23T08:48:13.300Z,27.20
2022-08-23T08:49:10.173Z,27.10
2022-08-23T08:50:09.779Z,27.15
2022-08-23T08:51:09.159Z,27.17
2022-08-23T08:52:09.133Z,27.27
2022-08-23T08:53:09.140Z,27.14
2022-08-23T08:54:09.122Z,26.96
2022-08-23T08:55:09.119Z,27.02
2022-08-23T08:56:09.112Z,27.08
2022-08-23T08:57:09.091Z,27.07
2022-08-23T08:58:10.060Z,27.08
2022-08-23T08:59:09.079Z,26.99
2022-08-23T09:00:09.120Z,26.95
2022-08-23T09:01:09.085Z,26.97
2022-08-23T09:02:32.436Z,26.88
2022-08-23T09:03:11.083Z,26.85
2022-08-23T09:04:09.089Z,26.77
2022-08-23T09:05:09.041Z,26.83
2022-08-23T09:06:09.077Z,26.62
2022-08-23T09:07:09.019Z,26.62
2022-08-23T09:08:09.009Z,26.53
2022-08-23T09:09:09.634Z,26.43
2022-08-23T09:10:08.992Z,26.44
2022-08-23T09:11:08.993Z,26.47
2022-08-23T09:12:09.987Z,26.51
2022-08-23T09:13:08.961Z,26.51
2022-08-23T09:14:08.967Z,26.56
2022-08-23T09:15:08.954Z,26.52
2022-08-23T09:16:08.985Z,26.41
2022-08-23T09:17:08.936Z,26.23
2022-08-23T09:18:08.929Z,26.31
2022-08-23T09:19:08.931Z,26.23
2022-08-23T09:20:41.602Z,26.26
2022-08-23T09:21:08.898Z,26.22
2022-08-23T09:22:08.904Z,26.41
2022-08-23T09:23:09.635Z,26.48
2022-08-23T09:24:41.133Z,26.41
2022-08-23T09:25:10.338Z,26.40
2022-08-23T09:26:08.884Z,26.29
2022-08-23T09:27:08.852Z,26.29
2022-08-23T09:28:08.852Z,26.28
2022-08-23T09:29:08.839Z,26.06
2022-08-23T09:30:08.832Z,26.13
2022-08-23T09:31:08.880Z,26.13
2022-08-23T09:32:09.826Z,26.25
2022-08-23T09:33:08.808Z,26.29
2022-08-23T09:34:08.801Z,26.45
2022-08-23T09:35:08.937Z,26.45
2022-08-23T09:36:08.800Z,26.34
2022-08-23T09:37:09.883Z,26.36
2022-08-23T09:38:08.771Z,26.40
2022-08-23T09:39:08.765Z,26.45
2022-08-23T09:40:08.786Z,26.45
2022-08-23T09:41:08.760Z,26.45
2022-08-23T09:42:08.742Z,26.44
2022-08-23T09:43:08.731Z,26.44
2022-08-23T09:44:08.719Z,26.48
2022-08-23T09:45:08.708Z,26.43
2022-08-23T09:46:09.835Z,26.37
2022-08-23T09:47:09.153Z,26.38
2022-08-23T09:48:08.697Z,26.33
2022-08-23T09:49:08.681Z,26.34
2022-08-23T09:50:08.674Z,26.36
2022-08-23T09:51:08.670Z,26.31
2022-08-23T09:52:08.660Z,26.36
2022-08-23T09:53:08.657Z,26.43
2022-08-23T09:54:08.642Z,26.38
2022-08-23T09:55:08.641Z,26.40
2022-08-23T09:56:08.626Z,26.47
2022-08-23T09:57:08.618Z,26.62
2022-08-23T09:58:08.609Z,26.75
2022-08-23T09:59:08.595Z,26.73
2022-08-23T10:00:08.635Z,26.84
2022-08-23T10:01:08.630Z,26.95
2022-08-23T10:02:08.710Z,26.97
2022-08-23T10:03:08.578Z,27.03
2022-08-23T10:04:08.613Z,27.14
2022-08-23T10:05:11.919Z,27.17
2022-08-23T10:06:09.548Z,27.15
2022-08-23T10:07:08.531Z,27.08
2022-08-23T10:08:10.682Z,27.14
2022-08-23T10:09:09.523Z,26.97
2022-08-23T10:10:08.510Z,26.96
2022-08-23T10:11:08.505Z,26.71
2022-08-23T10:12:08.492Z,26.71
2022-08-23T10:13:08.484Z,26.77
2022-08-23T10:14:08.482Z,26.81
2022-08-23T10:15:08.470Z,26.68
2022-08-23T10:16:08.497Z,26.74
2022-08-23T10:17:08.471Z,26.80
2022-08-23T10:18:08.450Z,26.80
2022-08-23T10:19:08.438Z,26.73
2022-08-23T10:20:08.425Z,26.84
2022-08-23T10:21:08.425Z,27.00
2022-08-23T10:22:08.413Z,27.14
2022-08-23T10:23:08.427Z,27.11
2022-08-23T10:24:08.396Z,27.26
2022-08-23T10:25:08.391Z,27.26
2022-08-23T10:26:08.393Z,27.26
2022-08-23T10:27:08.367Z,27.48
2022-08-23T10:28:08.369Z,27.49
2022-08-23T10:29:08.356Z,27.55
2022-08-23T10:30:08.344Z,27.63
2022-08-23T10:31:08.384Z,27.65
2022-08-23T10:32:08.418Z,27.67
2022-08-23T10:33:08.342Z,27.40
2022-08-23T10:34:08.329Z,27.36
2022-08-23T10:35:08.309Z,27.42
2022-08-23T10:36:08.302Z,27.32
2022-08-23T10:37:08.293Z,27.22
2022-08-23T10:38:08.284Z,27.33
2022-08-23T10:39:09.102Z,27.36
2022-08-23T10:40:08.312Z,27.37
2022-08-23T10:41:08.260Z,27.39
2022-08-23T10:42:08.257Z,27.54
2022-08-23T10:43:08.242Z,27.60
2022-08-23T10:44:08.265Z,27.73
2022-08-23T10:45:08.225Z,27.64
2022-08-23T10:46:08.248Z,27.42
2022-08-23T10:47:08.223Z,27.26
2022-08-23T10:48:08.201Z,27.22
2022-08-23T10:49:08.193Z,27.27
2022-08-23T10:50:08.185Z,27.21
2022-08-23T10:51:08.189Z,27.36
2022-08-23T10:52:08.169Z,27.45
2022-08-23T10:53:08.173Z,27.68
2022-08-23T10:54:08.155Z,27.67
2022-08-23T10:55:08.176Z,27.86
2022-08-23T10:56:08.155Z,27.90
2022-08-23T10:57:08.126Z,27.80
2022-08-23T10:58:08.118Z,27.73
2022-08-23T10:59:08.126Z,27.85
2022-08-23T11:00:08.114Z,27.92
2022-08-23T11:01:08.138Z,28.08
2022-08-23T11:02:08.104Z,28.08
2022-08-23T11:03:08.079Z,28.14
2022-08-23T11:04:08.091Z,28.17
2022-08-23T11:05:08.071Z,28.23
2022-08-23T11:06:08.062Z,28.20
2022-08-23T11:07:08.049Z,28.29
2022-08-23T11:08:08.040Z,28.37
2022-08-23T11:09:08.065Z,28.42
2022-08-23T11:10:09.976Z,28.42
2022-08-23T11:11:09.023Z,28.48
2022-08-23T11:12:11.054Z,28.49
2022-08-23T11:13:08.016Z,28.45
2022-08-23T11:14:08.017Z,28.48
2022-08-23T11:15:08.742Z,28.60
2022-08-23T11:16:08.017Z,28.69
2022-08-23T11:17:07.988Z,28.70
2022-08-23T11:18:07.971Z,28.63
2022-08-23T11:19:07.951Z,28.62
2022-08-23T11:20:07.996Z,28.52
2022-08-23T11:21:07.942Z,28.45
2022-08-23T11:22:07.925Z,28.48
2022-08-23T11:23:07.932Z,28.33
2022-08-23T11:24:08.691Z,28.41
2022-08-23T11:25:07.898Z,28.51
2022-08-23T11:26:07.896Z,28.59
2022-08-23T11:27:07.947Z,28.54
2022-08-23T11:28:07.877Z,28.54
2022-08-23T11:29:07.871Z,28.70
2022-08-23T11:30:08.673Z,28.67
2022-08-23T11:31:07.866Z,28.82
2022-08-23T11:32:07.866Z,28.79
2022-08-23T11:33:07.841Z,28.79
2022-08-23T11:34:07.830Z,28.85
2022-08-23T11:35:07.825Z,28.97
2022-08-23T11:36:07.818Z,28.97
2022-08-23T11:37:07.821Z,29.02
2022-08-23T11:38:07.800Z,29.04
2022-08-23T11:39:07.808Z,29.13
2022-08-23T11:40:07.837Z,28.93
2022-08-23T11:41:07.783Z,28.84
2022-08-23T11:42:07.775Z,28.70
2022-08-23T11:43:07.761Z,28.67
2022-08-23T11:44:07.767Z,28.52
2022-08-23T11:45:07.759Z,28.48
2022-08-23T11:46:07.763Z,28.54
2022-08-23T11:47:07.742Z,28.51
2022-08-23T11:48:07.737Z,28.75
2022-08-23T11:49:07.755Z,28.66
2022-08-23T11:50:07.728Z,28.67
2022-08-23T11:51:07.707Z,28.79
2022-08-23T11:52:07.712Z,28.79
2022-08-23T11:53:07.707Z,28.86
2022-08-23T11:54:07.713Z,28.91
2022-08-23T11:55:07.676Z,28.88
2022-08-23T11:56:07.680Z,28.85
2022-08-23T11:57:07.665Z,28.81
2022-08-23T11:58:07.665Z,28.75
2022-08-23T12:00:14.988Z,28.78
2022-08-23T12:01:14.997Z,28.70
2022-08-23T12:02:16.126Z,28.75
2022-08-23T12:03:15.059Z,28.67
2022-08-23T12:04:14.977Z,28.78
2022-08-23T12:05:14.947Z,28.75
2022-08-23T12:06:14.942Z,28.86
2022-08-23T12:07:14.931Z,29.04
2022-08-23T12:08:14.928Z,29.07
2022-08-23T12:09:14.917Z,29.16
2022-08-23T12:10:14.906Z,29.27
2022-08-23T12:11:14.900Z,29.19
2022-08-23T12:12:14.893Z,29.10
2022-08-23T12:13:14.890Z,29.14
2022-08-23T12:14:14.877Z,28.96
2022-08-23T12:15:14.864Z,28.97
2022-08-23T12:16:17.528Z,28.88
2022-08-23T12:17:15.332Z,28.86
2022-08-23T12:18:14.901Z,28.93
2022-08-23T12:19:15.936Z,29.02
2022-08-23T12:20:17.230Z,29.02
2022-08-23T12:21:15.915Z,29.04
2022-08-23T12:22:15.904Z,29.02
2022-08-23T12:23:15.898Z,29.05
2022-08-23T12:24:15.956Z,29.10
2022-08-23T12:25:15.893Z,29.10
2022-08-23T12:26:15.871Z,29.26
2022-08-23T12:27:16.856Z,29.24
2022-08-23T12:28:15.860Z,29.13
2022-08-23T12:29:15.841Z,29.20
2022-08-23T12:30:15.842Z,29.19
2022-08-23T12:31:15.849Z,29.10
2022-08-23T12:32:15.822Z,29.24
2022-08-23T12:33:15.811Z,29.24
2022-08-23T12:34:15.802Z,29.34
2022-08-23T12:35:15.806Z,29.31
2022-08-23T12:36:16.679Z,29.41
2022-08-23T12:37:15.781Z,29.56
2022-08-23T12:38:15.772Z,29.57
2022-08-23T12:39:15.770Z,29.61
2022-08-23T12:40:15.793Z,29.59
2022-08-23T12:41:15.750Z,29.66
2022-08-23T12:42:15.761Z,29.57
2022-08-23T12:43:17.444Z,29.60
2022-08-23T12:44:16.720Z,29.75
2022-08-23T12:45:15.722Z,29.71
2022-08-23T12:46:15.766Z,29.68
2022-08-23T12:47:15.738Z,29.68
2022-08-23T12:48:15.698Z,29.73
2022-08-23T12:49:15.741Z,29.79
2022-08-23T12:50:15.689Z,29.75
2022-08-23T12:51:15.663Z,29.90
2022-08-23T12:52:15.666Z,29.84
2022-08-23T12:53:15.657Z,29.90
2022-08-23T12:54:15.639Z,29.98